createdAt,value
2018-08-11T00:00:07.594Z,98.70
2018-08-11T00:02:35.072Z,98.50
2018-08-11T00:05:02.588Z,98.00
2018-08-11T00:07:30.011Z,97.90
2018-08-11T00:09:57.438Z,97.70
2018-08-11T00:12:24.870Z,97.60
2018-08-11T00:14:52.242Z,97.40
2018-08-11T00:17:19.646Z,97.10
2018-08-11T00:19:47.110Z,97.00
2018-08-11T00:22:14.675Z,96.50
2018-08-11T00:24:42.023Z,95.90
2018-08-11T00:27:09.490Z,95.60
2018-08-11T00:29:36.878Z,95.10
2018-08-11T00:32:04.505Z,94.80
2018-08-11T00:34:31.874Z,94.50
2018-08-11T00:36:59.484Z,94.10
2018-08-11T00:39:26.943Z,93.50
2018-08-11T00:41:54.363Z,93.50
2018-08-11T00:44:21.778Z,93.10
2018-08-11T00:46:49.161Z,92.90
2018-08-11T00:49:16.683Z,92.80
2018-08-11T00:51:44.119Z,92.20
2018-08-11T00:54:11.575Z,92.30
2018-08-11T00:56:40.150Z,92.20
2018-08-11T00:59:07.574Z,92.30
2018-08-11T01:01:35.090Z,91.70
2018-08-11T01:04:02.503Z,91.70
2018-08-11T01:06:30.095Z,91.40
2018-08-11T01:08:57.441Z,91.30
2018-08-11T01:11:24.875Z,91.20
2018-08-11T01:13:52.372Z,91.10
2018-08-11T01:16:19.900Z,91.10
2018-08-11T01:18:47.356Z,90.70
2018-08-11T01:21:15.206Z,90.50
2018-08-11T01:23:42.629Z,90.30
2018-08-11T01:26:10.058Z,89.80
2018-08-11T01:28:37.506Z,89.50
2018-08-11T01:31:05.201Z,89.40
2018-08-11T01:33:32.638Z,89.50
2018-08-11T01:36:00.068Z,88.40
2018-08-11T01:38:27.557Z,88.40
2018-08-11T01:40:54.996Z,87.90
2018-08-11T01:43:22.415Z,87.60
2018-08-11T01:45:49.859Z,87.30
2018-08-11T01:48:17.346Z,87.40
2018-08-11T01:50:45.019Z,87.50
2018-08-11T01:53:12.407Z,87.80
2018-08-11T01:55:39.892Z,88.30
2018-08-11T01:58:07.352Z,88.40
2018-08-11T02:00:34.804Z,88.70
2018-08-11T02:03:02.534Z,89.20
2018-08-11T02:05:30.125Z,89.60
2018-08-11T02:07:57.621Z,89.60
2018-08-11T02:10:25.077Z,90.00
2018-08-11T02:12:52.519Z,90.30
2018-08-11T02:15:19.959Z,90.70
2018-08-11T02:17:47.449Z,91.10
2018-08-11T02:20:16.260Z,91.30
2018-08-11T02:22:44.676Z,91.50
2018-08-11T02:25:12.311Z,91.80
2018-08-11T02:27:39.915Z,92.10
2018-08-11T02:30:09.486Z,92.60
2018-08-11T02:32:37.132Z,93.20
2018-08-11T02:35:05.558Z,94.40
2018-08-11T02:37:33.132Z,94.40
2018-08-11T02:40:00.496Z,94.70
2018-08-11T02:42:27.942Z,94.50
2018-08-11T02:44:55.316Z,95.00
2018-08-11T02:47:22.769Z,95.30
2018-08-11T02:49:50.542Z,95.70
2018-08-11T02:52:18.060Z,95.80
2018-08-11T02:54:45.508Z,95.80
2018-08-11T02:57:12.890Z,95.90
2018-08-11T02:59:40.368Z,96.10
2018-08-11T03:02:07.875Z,96.20
2018-08-11T03:04:35.273Z,96.50
2018-08-11T03:07:02.766Z,97.00
2018-08-11T03:09:30.129Z,97.10
2018-08-11T03:11:57.530Z,97.20
2018-08-11T03:14:24.931Z,97.50
2018-08-11T03:16:52.436Z,97.50
2018-08-11T03:19:19.858Z,97.20
2018-08-11T03:21:47.335Z,97.00
2018-08-11T03:24:14.702Z,96.60
2018-08-11T03:26:42.169Z,96.50
2018-08-11T03:29:09.559Z,96.10
2018-08-11T03:31:36.986Z,97.10
2018-08-11T03:34:04.428Z,98.50
2018-08-11T03:36:31.864Z,99.10
2018-08-11T03:38:59.285Z,99.30
2018-08-11T03:41:26.622Z,99.90
2018-08-11T03:43:54.148Z,99.90
2018-08-11T03:46:21.547Z,99.90
2018-08-11T03:48:48.870Z,99.90
2018-08-11T03:51:16.254Z,99.90
2018-08-11T03:53:43.644Z,99.90
2018-08-11T03:56:11.023Z,99.90
2018-08-11T03:58:38.387Z,99.90
2018-08-11T04:01:06.081Z,99.90
2018-08-11T04:03:33.426Z,99.90
2018-08-11T04:06:00.856Z,99.90
2018-08-11T04:08:28.199Z,99.90
2018-08-11T04:10:55.526Z,99.90
2018-08-11T04:13:22.887Z,99.90
2018-08-11T04:15:50.239Z,99.90
2018-08-11T04:18:17.695Z,99.90
2018-08-11T04:20:45.047Z,99.90
2018-08-11T04:23:12.398Z,99.90
2018-08-11T04:25:39.726Z,99.90
2018-08-11T04:28:07.090Z,99.90
2018-08-11T04:30:34.669Z,99.90
2018-08-11T04:33:02.020Z,99.90
2018-08-11T04:35:29.478Z,99.90
2018-08-11T04:37:56.818Z,99.90
2018-08-11T04:40:24.305Z,99.90
2018-08-11T04:42:51.657Z,99.90
2018-08-11T04:45:19.064Z,99.90
2018-08-11T04:47:46.414Z,99.90
2018-08-11T04:50:13.792Z,99.90
2018-08-11T04:52:41.289Z,99.90
2018-08-11T04:55:09.074Z,99.90
2018-08-11T04:57:36.557Z,99.90
2018-08-11T05:00:05.053Z,99.90
2018-08-11T05:02:32.511Z,99.90
2018-08-11T05:04:59.864Z,99.90
2018-08-11T05:07:27.339Z,99.90
2018-08-11T05:09:54.740Z,99.90
2018-08-11T05:12:22.192Z,99.90
2018-08-11T05:14:49.584Z,99.90
2018-08-11T05:17:17.010Z,99.90
2018-08-11T05:19:44.360Z,99.90
2018-08-11T05:22:11.864Z,99.90
2018-08-11T05:24:39.599Z,99.90
2018-08-11T05:27:07.066Z,99.90
2018-08-11T05:29:34.477Z,99.90
2018-08-11T05:32:02.198Z,99.90
2018-08-11T05:34:29.687Z,99.90
2018-08-11T05:36:57.266Z,99.90
2018-08-11T05:39:24.757Z,99.90
2018-08-11T05:41:52.146Z,99.90
2018-08-11T05:44:19.626Z,99.90
2018-08-11T05:46:47.052Z,99.90
2018-08-11T05:49:14.574Z,99.90
2018-08-11T05:51:42.490Z,99.90
2018-08-11T05:54:09.876Z,99.90
2018-08-11T05:56:37.360Z,99.90
2018-08-11T05:59:04.898Z,98.70
2018-08-11T06:01:32.406Z,97.00
2018-08-11T06:04:01.114Z,96.20
2018-08-11T06:06:29.333Z,95.60
2018-08-11T06:08:56.857Z,95.60
2018-08-11T06:11:24.375Z,94.80
2018-08-11T06:13:51.867Z,94.80
2018-08-11T06:16:19.372Z,95.00
2018-08-11T06:18:46.788Z,95.30
2018-08-11T06:21:14.289Z,95.30
2018-08-11T06:23:41.660Z,94.30
2018-08-11T06:26:09.205Z,94.20
2018-08-11T06:28:36.650Z,94.30
2018-08-11T06:31:04.136Z,95.00
2018-08-11T06:33:31.688Z,95.20
2018-08-11T06:35:59.075Z,95.40
2018-08-11T06:38:26.600Z,95.00
2018-08-11T06:40:54.402Z,95.90
2018-08-11T06:43:21.687Z,96.40
2018-08-11T06:45:49.172Z,97.60
2018-08-11T06:48:16.645Z,98.20
2018-08-11T06:50:44.042Z,99.10
2018-08-11T06:53:11.447Z,99.40
2018-08-11T06:55:39.745Z,99.00
2018-08-11T06:58:07.846Z,98.20
2018-08-11T07:00:35.303Z,97.20
2018-08-11T07:03:04.942Z,97.00
2018-08-11T07:05:33.115Z,95.80
2018-08-11T07:08:02.577Z,94.80
2018-08-11T07:10:30.151Z,94.10
2018-08-11T07:12:57.834Z,94.20
2018-08-11T07:15:25.833Z,94.80
2018-08-11T07:17:53.227Z,94.80
2018-08-11T07:20:20.684Z,95.20
2018-08-11T07:22:54.631Z,94.40
2018-08-11T07:25:22.150Z,94.30
2018-08-11T07:27:58.660Z,93.90
2018-08-11T07:30:26.075Z,93.80
2018-08-11T07:32:53.788Z,93.60
2018-08-11T07:35:21.205Z,92.80
2018-08-11T07:37:48.612Z,93.00
2018-08-11T07:40:16.305Z,92.60
2018-08-11T07:42:44.506Z,92.40
2018-08-11T07:45:12.073Z,92.40
2018-08-11T07:47:39.852Z,91.80
2018-08-11T07:50:07.421Z,92.00
2018-08-11T07:52:35.564Z,91.80
2018-08-11T07:55:03.320Z,92.50
2018-08-11T07:57:30.751Z,92.70
2018-08-11T07:59:58.300Z,93.00
2018-08-11T08:02:26.191Z,92.10
2018-08-11T08:04:54.048Z,91.70
2018-08-11T08:07:23.289Z,91.60
2018-08-11T08:09:51.966Z,91.40
2018-08-11T08:12:19.803Z,92.10
2018-08-11T08:14:47.328Z,91.70
2018-08-11T08:17:15.063Z,92.20
2018-08-11T08:19:43.304Z,91.60
2018-08-11T08:22:11.068Z,90.80
2018-08-11T08:24:38.869Z,91.50
2018-08-11T08:27:11.915Z,91.40
2018-08-11T08:29:39.414Z,90.70
2018-08-11T08:32:07.445Z,90.90
2018-08-11T08:34:35.450Z,88.10
2018-08-11T08:37:04.507Z,86.90
2018-08-11T08:39:33.365Z,86.90
2018-08-11T08:42:05.180Z,87.00
2018-08-11T08:44:36.967Z,87.90
2018-08-11T08:47:04.829Z,87.60
2018-08-11T08:49:54.305Z,88.60
2018-08-11T08:52:23.055Z,88.70
2018-08-11T08:54:53.174Z,89.70
2018-08-11T08:57:22.781Z,89.70
2018-08-11T08:59:52.678Z,90.20
2018-08-11T09:02:20.441Z,90.00
2018-08-11T09:04:53.696Z,89.80
2018-08-11T09:07:22.614Z,88.30
2018-08-11T09:12:28.348Z,86.90
2018-08-11T09:14:55.937Z,87.00
2018-08-11T09:17:23.532Z,87.60
2018-08-11T09:19:51.080Z,88.20
2018-08-11T09:22:18.578Z,87.00
2018-08-11T09:24:46.027Z,86.60
2018-08-11T09:27:16.029Z,87.80
2018-08-11T09:29:45.737Z,89.90
2018-08-11T09:32:13.353Z,90.80
2018-08-11T09:34:41.368Z,91.00
2018-08-11T09:37:09.798Z,91.00
2018-08-11T09:39:39.821Z,91.90
2018-08-11T09:42:20.251Z,93.20
2018-08-11T09:44:48.247Z,94.90
2018-08-11T09:47:23.271Z,96.30
2018-08-11T09:49:53.087Z,95.40
2018-08-11T09:52:20.911Z,96.20
2018-08-11T09:54:48.977Z,96.20
2018-08-11T09:57:16.572Z,96.70
2018-08-11T09:59:47.824Z,96.60
2018-08-11T10:02:18.977Z,97.10
2018-08-11T10:04:47.202Z,97.70
2018-08-11T10:07:16.381Z,98.70
2018-08-11T10:09:49.610Z,98.20
2018-08-11T10:12:18.179Z,96.00
2018-08-11T10:14:49.308Z,95.40
2018-08-11T10:17:17.031Z,94.70
2018-08-11T10:19:44.460Z,94.80
2018-08-11T10:22:13.024Z,94.70
2018-08-11T10:24:40.535Z,94.40
2018-08-11T10:31:46.465Z,95.00
2018-08-11T10:34:14.853Z,94.40
2018-08-11T10:36:43.692Z,93.50
2018-08-11T10:39:13.953Z,93.00
2018-08-11T10:41:42.217Z,91.80
2018-08-11T10:44:11.407Z,90.60
2018-08-11T10:46:43.425Z,90.60
2018-08-11T10:49:13.710Z,91.20
2018-08-11T10:51:42.754Z,91.20
2018-08-11T10:54:14.519Z,90.80
2018-08-11T10:56:42.795Z,90.20
2018-08-11T10:59:14.448Z,90.10
2018-08-11T11:01:43.883Z,87.20
2018-08-11T11:04:12.338Z,88.30
2018-08-11T11:06:42.132Z,89.20
2018-08-11T11:09:10.641Z,90.00
2018-08-11T11:11:39.134Z,87.40
2018-08-11T11:14:07.480Z,86.40
2018-08-11T11:16:36.195Z,84.10
2018-08-11T11:19:07.852Z,83.90
2018-08-11T11:21:39.524Z,80.00
2018-08-11T11:24:08.074Z,82.30
2018-08-11T11:26:35.976Z,82.30
2018-08-11T11:29:04.825Z,84.00
2018-08-11T11:31:33.210Z,83.60
2018-08-11T11:34:04.204Z,83.90
2018-08-11T11:36:33.600Z,84.40
2018-08-11T11:39:09.355Z,85.70
2018-08-11T11:41:41.039Z,85.30
2018-08-11T11:44:10.167Z,85.40
2018-08-11T11:46:38.640Z,84.60
2018-08-11T11:49:14.073Z,85.70
2018-08-11T11:51:42.698Z,83.70
2018-08-11T11:54:11.430Z,82.70
2018-08-11T11:56:40.131Z,81.10
2018-08-11T11:59:13.886Z,80.80
2018-08-11T12:01:42.759Z,78.80
2018-08-11T12:04:12.175Z,78.70
2018-08-11T12:06:40.505Z,78.40
2018-08-11T12:09:09.892Z,76.70
2018-08-11T12:11:39.928Z,76.10
2018-08-11T12:14:08.346Z,76.30
2018-08-11T12:16:38.175Z,76.00
2018-08-11T12:19:08.686Z,75.30
2018-08-11T12:21:38.025Z,76.10
2018-08-11T12:24:08.558Z,75.60
2018-08-11T12:26:36.950Z,75.70
2018-08-11T12:29:07.774Z,76.00
2018-08-11T12:31:39.412Z,74.80
2018-08-11T12:34:07.867Z,72.60
2018-08-11T12:36:37.676Z,70.30
2018-08-11T12:39:08.730Z,69.10
2018-08-11T12:41:37.704Z,70.10
2018-08-11T12:44:05.897Z,70.70
2018-08-11T12:46:34.895Z,71.60
2018-08-11T12:49:10.777Z,70.30
2018-08-11T12:51:40.164Z,71.60
2018-08-11T12:54:09.258Z,72.10
2018-08-11T12:56:37.874Z,71.20
2018-08-11T12:59:06.301Z,71.70
2018-08-11T13:01:35.673Z,70.90
2018-08-11T13:04:05.223Z,70.20
2018-08-11T13:06:37.267Z,71.80
2018-08-11T13:09:10.386Z,74.10
2018-08-11T13:11:41.065Z,75.60
2018-08-11T13:14:14.334Z,75.40
2018-08-11T13:16:43.044Z,77.80
2018-08-11T13:19:16.581Z,80.90
2018-08-11T13:21:48.154Z,84.80
2018-08-11T13:24:24.912Z,83.90
2018-08-11T13:27:06.942Z,78.70
2018-08-11T13:29:36.892Z,78.70
2018-08-11T13:32:05.774Z,74.70
2018-08-11T13:34:34.689Z,73.00
2018-08-11T13:37:03.962Z,72.70
2018-08-11T13:39:32.025Z,73.00
2018-08-11T13:42:00.244Z,73.30
2018-08-11T13:44:30.569Z,73.40
2018-08-11T13:46:58.945Z,72.20
2018-08-11T13:49:28.615Z,70.80
2018-08-11T13:51:56.793Z,71.80
2018-08-11T13:54:26.498Z,71.00
2018-08-11T13:56:56.102Z,69.50
2018-08-11T14:02:48.640Z,71.50
2018-08-11T14:05:18.197Z,71.20
2018-08-11T14:07:52.693Z,71.20
2018-08-11T14:10:21.860Z,72.60
2018-08-11T14:12:50.255Z,73.40
2018-08-11T14:15:19.687Z,74.60
2018-08-11T14:17:49.303Z,76.20
2018-08-11T14:20:18.323Z,77.30
2018-08-11T14:22:47.708Z,78.90
2018-08-11T14:25:16.545Z,81.80
2018-08-11T14:27:47.424Z,93.90
2018-08-11T14:30:21.185Z,97.60
2018-08-11T14:32:54.198Z,99.30
2018-08-11T14:35:24.530Z,99.60
2018-08-11T14:37:55.274Z,99.90
2018-08-11T14:40:23.448Z,99.90
2018-08-11T14:42:55.822Z,99.90
2018-08-11T14:45:25.994Z,99.90
2018-08-11T14:47:56.317Z,99.90
2018-08-11T14:50:27.127Z,99.90
2018-08-11T14:52:57.812Z,99.90
2018-08-11T14:55:27.374Z,99.90
2018-08-11T14:57:56.477Z,99.80
2018-08-11T15:00:29.000Z,99.60
2018-08-11T15:02:57.946Z,99.90
2018-08-11T15:05:28.547Z,99.60
2018-08-11T15:07:58.400Z,96.80
2018-08-11T15:10:27.547Z,96.80
2018-08-11T15:12:59.427Z,95.70
2018-08-11T15:15:28.260Z,95.10
2018-08-11T15:18:00.104Z,95.60
2018-08-11T15:20:36.765Z,96.10
2018-08-11T15:23:12.932Z,95.80
2018-08-11T15:25:42.868Z,94.20
2018-08-11T15:28:11.216Z,94.70
2018-08-11T15:30:42.512Z,95.00
2018-08-11T15:33:11.499Z,94.90
2018-08-11T15:35:41.242Z,94.60
2018-08-11T15:38:10.701Z,94.20
2018-08-11T15:40:39.940Z,95.90
2018-08-11T15:43:11.700Z,96.30
2018-08-11T15:45:44.749Z,96.60
2018-08-11T15:48:13.264Z,95.40
2018-08-11T15:50:42.147Z,94.90
2018-08-11T15:53:10.311Z,93.50
2018-08-11T15:55:40.525Z,92.70
2018-08-11T15:58:08.804Z,92.50
2018-08-11T16:00:38.083Z,91.40
2018-08-11T16:03:14.171Z,91.00
2018-08-11T16:05:45.586Z,90.30
2018-08-11T16:08:22.418Z,90.30
2018-08-11T16:10:50.362Z,89.60
2018-08-11T16:13:18.278Z,88.80
2018-08-11T16:15:47.508Z,89.30
2018-08-11T16:18:16.007Z,90.20
2018-08-11T16:20:47.002Z,90.40
2018-08-11T16:23:17.239Z,91.50
2018-08-11T16:25:46.518Z,90.80
2018-08-11T16:28:15.704Z,90.50
2018-08-11T16:30:44.764Z,91.20
2018-08-11T16:33:14.351Z,91.80
2018-08-11T16:35:42.886Z,92.00
2018-08-11T16:38:11.968Z,92.00
2018-08-11T16:40:40.103Z,91.60
2018-08-11T16:43:09.637Z,90.90
2018-08-11T16:45:39.581Z,91.50
2018-08-11T16:48:08.577Z,91.40
2018-08-11T16:50:36.475Z,90.90
2018-08-11T16:53:04.859Z,91.00
2018-08-11T16:55:32.951Z,91.20
2018-08-11T16:58:01.723Z,91.30
2018-08-11T17:00:30.997Z,91.70
2018-08-11T17:02:59.078Z,92.40
2018-08-11T17:05:28.292Z,92.60
2018-08-11T17:07:56.662Z,93.30
2018-08-11T17:10:25.002Z,93.50
2018-08-11T17:12:56.658Z,93.60
2018-08-11T17:15:26.588Z,94.10
2018-08-11T17:17:55.407Z,94.30
2018-08-11T17:20:29.033Z,94.70
2018-08-11T17:22:57.794Z,95.00
2018-08-11T17:25:26.534Z,95.10
2018-08-11T17:28:00.771Z,95.40
2018-08-11T17:33:11.550Z,96.00
2018-08-11T17:35:41.272Z,96.30
2018-08-11T17:38:10.163Z,96.20
2018-08-11T17:40:40.330Z,96.20
2018-08-11T17:43:13.840Z,95.90
2018-08-11T17:45:45.017Z,95.30
2018-08-11T17:50:59.105Z,93.70
2018-08-11T17:53:28.198Z,93.20
2018-08-11T17:55:58.641Z,93.10
2018-08-11T17:58:30.487Z,93.80
2018-08-11T18:00:59.355Z,94.20
2018-08-11T18:03:28.764Z,94.70
2018-08-11T18:05:58.680Z,95.30
2018-08-11T18:08:26.941Z,95.40
2018-08-11T18:10:57.117Z,95.90
2018-08-11T18:13:27.417Z,96.50
2018-08-11T18:15:59.405Z,96.90
2018-08-11T18:18:27.732Z,97.50
2018-08-11T18:37:44.355Z,98.60
2018-08-11T18:40:12.232Z,99.70
2018-08-11T18:42:47.934Z,99.90
2018-08-11T18:45:15.980Z,99.90
2018-08-11T18:47:43.652Z,99.90
2018-08-11T18:50:11.132Z,99.90
2018-08-11T18:52:38.684Z,99.90
2018-08-11T18:55:07.854Z,99.90
2018-08-11T18:57:35.609Z,99.90
2018-08-11T19:00:04.976Z,99.90
2018-08-11T19:02:32.524Z,99.90
2018-08-11T19:05:00.212Z,99.90
2018-08-11T19:07:27.774Z,99.90
2018-08-11T19:09:55.254Z,99.90
2018-08-11T19:12:22.657Z,99.90
2018-08-11T19:14:50.341Z,99.90
2018-08-11T19:17:17.835Z,99.90
2018-08-11T19:19:45.312Z,99.90
2018-08-11T19:22:12.786Z,99.90
2018-08-11T19:24:40.819Z,99.90
2018-08-11T19:27:08.293Z,99.90
2018-08-11T19:29:35.771Z,99.90
2018-08-11T19:32:03.280Z,99.90
2018-08-11T19:34:30.690Z,99.90
2018-08-11T19:36:58.090Z,99.90
2018-08-11T19:39:25.628Z,99.90
2018-08-11T19:41:53.200Z,99.90
2018-08-11T19:44:20.611Z,99.90
2018-08-11T19:46:48.268Z,99.90
2018-08-11T19:49:15.626Z,99.90
2018-08-11T19:51:43.100Z,99.90
2018-08-11T19:54:10.583Z,99.90
2018-08-11T19:56:38.452Z,99.90
2018-08-11T19:59:06.296Z,99.90
2018-08-11T20:01:33.756Z,99.90
2018-08-11T20:04:01.282Z,99.90
2018-08-11T20:06:28.712Z,99.90
2018-08-11T20:08:56.149Z,99.90
2018-08-11T20:11:23.997Z,99.90
2018-08-11T20:13:51.477Z,99.90
2018-08-11T20:16:18.958Z,99.90
2018-08-11T20:18:47.031Z,99.90
2018-08-11T20:21:14.610Z,99.90
2018-08-11T20:23:42.053Z,99.90
2018-08-11T20:26:10.758Z,99.90
2018-08-11T20:28:38.225Z,99.90
2018-08-11T20:31:05.703Z,99.90
2018-08-11T20:33:33.176Z,99.90
2018-08-11T20:36:00.642Z,99.90
2018-08-11T20:38:28.454Z,99.90
2018-08-11T20:40:56.428Z,99.90
2018-08-11T20:43:23.909Z,99.90
2018-08-11T20:45:51.475Z,99.90
2018-08-11T20:48:19.095Z,99.90
2018-08-11T20:50:46.661Z,99.90
2018-08-11T20:53:14.472Z,99.90
2018-08-11T20:55:41.916Z,99.90
2018-08-11T20:58:09.474Z,99.90
2018-08-11T21:00:37.432Z,99.90
2018-08-11T21:03:07.959Z,99.90
2018-08-11T21:05:35.370Z,99.90
2018-08-11T21:08:03.018Z,99.90
2018-08-11T21:10:30.902Z,99.90
2018-08-11T21:12:59.051Z,99.90
2018-08-11T21:15:27.522Z,99.90
2018-08-11T21:17:55.304Z,99.90
2018-08-11T21:20:24.936Z,99.90
2018-08-11T21:22:52.676Z,99.90
2018-08-11T21:25:22.764Z,99.90
2018-08-11T21:27:51.929Z,99.90
2018-08-11T21:30:20.770Z,99.90
2018-08-11T21:32:48.322Z,99.90
2018-08-11T21:35:17.227Z,99.90
2018-08-11T21:37:45.015Z,99.90
2018-08-11T21:40:14.864Z,99.90
2018-08-11T21:42:44.318Z,99.90
2018-08-11T21:45:12.241Z,99.90
2018-08-11T21:47:40.951Z,99.90
2018-08-11T21:50:09.757Z,99.90
2018-08-11T21:52:38.708Z,99.90
2018-08-11T21:55:07.051Z,99.90
2018-08-11T21:57:36.616Z,99.90
2018-08-11T22:00:28.277Z,99.90
2018-08-11T22:02:56.153Z,99.90
2018-08-11T22:05:24.457Z,99.90
2018-08-11T22:07:52.821Z,99.90
2018-08-11T22:10:21.272Z,99.90
2018-08-11T22:12:48.978Z,99.90
2018-08-11T22:15:18.881Z,99.90
2018-08-11T22:17:46.932Z,99.90
2018-08-11T22:20:14.967Z,99.90
2018-08-11T22:22:43.331Z,99.90
2018-08-11T22:25:12.138Z,99.90
2018-08-11T22:27:40.022Z,99.90
2018-08-11T22:30:08.444Z,99.90
2018-08-11T22:32:36.648Z,99.90
2018-08-11T22:35:05.408Z,99.90
2018-08-11T22:37:33.311Z,99.90
2018-08-11T22:40:01.459Z,99.90
2018-08-11T22:42:28.913Z,99.90
2018-08-11T22:44:56.301Z,99.90
2018-08-11T22:47:23.882Z,99.90
2018-08-11T22:49:51.407Z,99.90
2018-08-11T22:52:18.831Z,99.90
2018-08-11T22:54:46.276Z,99.90
2018-08-11T22:57:13.663Z,99.90
2018-08-11T22:59:41.204Z,99.90
2018-08-11T23:02:08.680Z,99.90
2018-08-11T23:04:36.215Z,99.90
2018-08-11T23:07:03.718Z,99.90
2018-08-11T23:09:31.269Z,99.90
2018-08-11T23:11:58.841Z,99.90
2018-08-11T23:14:26.267Z,99.90
2018-08-11T23:16:54.222Z,99.90
2018-08-11T23:19:21.796Z,99.90
2018-08-11T23:21:49.200Z,99.90
2018-08-11T23:24:16.606Z,99.90
2018-08-11T23:26:44.159Z,99.90
2018-08-11T23:29:11.581Z,99.90
2018-08-11T23:31:39.083Z,99.90
2018-08-11T23:34:06.504Z,99.90
2018-08-11T23:36:33.924Z,99.90
2018-08-11T23:39:01.428Z,99.90
2018-08-11T23:41:28.965Z,99.90
2018-08-11T23:43:56.397Z,99.90
2018-08-11T23:46:23.877Z,99.90
2018-08-11T23:48:51.379Z,99.90
2018-08-11T23:51:18.832Z,99.90
2018-08-11T23:53:46.287Z,99.90
2018-08-11T23:56:13.708Z,99.90
2018-08-11T23:58:41.239Z,99.90
